Osg Courageous — WDF7122 — position and weather

sailwx.info

Track history (hours):
 
Tides and Currents Weather Stations Pressure Air Temp Water Temp Dewpoint Dewpoint Depression Visibility Wind Speed Wind Dir Waves Ship Positions

Osg Courageous

More information available from US FCC via Universal Licensing System and Coast Guard Vessel Documentation Center.

Last reported at 2014-Sep-19 16:21 UTC. Time now 2014-Sep-20 08:00 UTC.
Position N 27°36' W 082°58'.

Length 187 m; draft 7 m.

Type: Tanker. MMSI: 367481310.

Date/timePositionNaut miles runAvg speedWind from/ knotsBaromVisibWave heightAir tempDewpointWater temp
2014-Sep-19 16:21N 27°36' W 082°58'911.4
2014-Sep-19 15:33N 27°37' W 082°48'10 9.9
2014-Sep-19 14:34N 27°39' W 082°37'1010.0
2014-Sep-19 13:33N 27°47' W 082°30'9 8.5
2014-Sep-19 12:33N 27°55' W 082°27'2 1.6
2014-Sep-19 11:32N 27°57' W 082°27'0 0.0
2014-Sep-19 10:32N 27°57' W 082°27'0 0.0
2014-Sep-19 09:32N 27°57' W 082°27'0 0.0
2014-Sep-19 08:32N 27°57' W 082°27'0 0.0
2014-Sep-19 07:32N 27°57' W 082°27'0 0.0
2014-Sep-19 06:32N 27°57' W 082°27'0 0.0
2014-Sep-19 05:32N 27°57' W 082°27'0 0.0
2014-Sep-19 04:32N 27°57' W 082°27'0 0.0
2014-Sep-19 03:32N 27°57' W 082°27'0 0.0
2014-Sep-19 02:32N 27°57' W 082°27'0 0.0
2014-Sep-19 01:32N 27°57' W 082°27'0 0.0
2014-Sep-19 00:32N 27°57' W 082°27'0 0.0
2014-Sep-18 23:32N 27°57' W 082°27'1 0.6
2014-Sep-18 22:33N 27°56' W 082°27'0 0.0
2014-Sep-18 21:33N 27°56' W 082°27'0 0.0
2014-Sep-18 20:33N 27°56' W 082°27'0 0.0
2014-Sep-18 19:33N 27°56' W 082°27'0 0.0
2014-Sep-18 18:33N 27°56' W 082°27'0 0.0
2014-Sep-18 17:33N 27°56' W 082°27'0 0.0
2014-Sep-18 16:33N 27°56' W 082°27'0 0.0
2014-Sep-18 15:33N 27°56' W 082°27'0 0.0
2014-Sep-18 14:33N 27°56' W 082°27'0 0.0
2014-Sep-18 13:33N 27°56' W 082°27'0 0.0
2014-Sep-18 12:33N 27°56' W 082°27'0 0.0
2014-Sep-18 11:33N 27°56' W 082°27'1 0.5
2014-Sep-18 10:32N 27°57' W 082°27'0 0.0
2014-Sep-18 09:32N 27°57' W 082°27'0 0.0
2014-Sep-18 08:32N 27°57' W 082°27'0 0.0
2014-Sep-18 07:32N 27°57' W 082°27'0 0.0
2014-Sep-18 06:32N 27°57' W 082°27'0 0.0
2014-Sep-18 05:29N 27°57' W 082°27'0 0.0
2014-Sep-18 04:32N 27°57' W 082°27'1 1.5
2014-Sep-18 03:33N 27°55' W 082°27'7 7.4
2014-Sep-18 02:33N 27°48' W 082°28'9 9.3
2014-Sep-18 01:33N 27°41' W 082°35'10 9.7
2014-Sep-18 00:31N 27°36' W 082°45'9 9.8
2014-Sep-17 23:33N 27°36' W 082°56'1 1.4
2014-Sep-17 22:31N 27°37' W 082°57'0 0.0
2014-Sep-17 21:31N 27°37' W 082°57'0 0.0
2014-Sep-17 20:25N 27°37' W 082°57'0 0.0
2014-Sep-17 19:28N 27°37' W 082°57'0 0.0
2014-Sep-17 18:04N 27°37' W 082°57'0 0.0
2014-Sep-17 17:32N 27°37' W 082°57'0 0.0
2014-Sep-17 16:31N 27°37' W 082°57'0 0.0
2014-Sep-17 15:13N 27°37' W 082°57'0 0.0
2014-Sep-17 14:31N 27°37' W 082°57'0 0.0
2014-Sep-17 13:28N 27°37' W 082°57'0 0.0
2014-Sep-17 12:22N 27°37' W 082°57'0 0.0
2014-Sep-17 11:31N 27°37' W 082°57'0 0.0
2014-Sep-17 10:28N 27°37' W 082°57'0 0.0
2014-Sep-17 09:31N 27°37' W 082°57'0 0.1
2014-Sep-17 08:31N 27°37' W 082°57'0 0.0
2014-Sep-17 07:04N 27°37' W 082°57'0 0.0
2014-Sep-17 06:28N 27°37' W 082°57'0 0.0
2014-Sep-17 05:28N 27°37' W 082°57'0 0.0
2014-Sep-17 04:31N 27°37' W 082°57'0 0.0
2014-Sep-17 03:31N 27°37' W 082°57'0 0.0
2014-Sep-17 02:31N 27°37' W 082°57'0 0.0
2014-Sep-17 00:04N 27°37' W 082°57'0 0.0
2014-Sep-16 23:19N 27°37' W 082°57'0 0.0
2014-Sep-16 22:31N 27°37' W 082°57'0 0.0
2014-Sep-16 21:31N 27°37' W 082°57'0 0.0
2014-Sep-16 20:31N 27°37' W 082°57'0 0.1
2014-Sep-16 19:25N 27°37' W 082°57'0 0.1
2014-Sep-16 18:31N 27°37' W 082°57'0 0.1
2014-Sep-16 17:31N 27°37' W 082°57'0 0.0
2014-Sep-16 16:19N 27°37' W 082°57'0 0.0
2014-Sep-16 15:31N 27°37' W 082°57'0 0.0
2014-Sep-16 14:31N 27°37' W 082°57'0 0.1
2014-Sep-16 13:31N 27°37' W 082°57'0 0.1
2014-Sep-16 12:31N 27°37' W 082°57'2 2.1
2014-Sep-16 11:33N 27°38' W 082°59'  
2014-Sep-14 03:22N 29°58' W 090°17'7 8.5
2014-Sep-14 02:33N 29°59' W 090°25'10 9.8
2014-Sep-14 01:33N 30°03' W 090°35'0 0.1
2014-Sep-13 21:31N 30°03' W 090°36'0 0.0
2014-Sep-13 20:31N 30°03' W 090°36'0 0.0
2014-Sep-13 19:28N 30°03' W 090°36'0 0.0
2014-Sep-13 18:31N 30°03' W 090°36'0 0.0
2014-Sep-13 15:22N 30°03' W 090°36'0 0.0
2014-Sep-13 14:28N 30°03' W 090°36'0 0.0
2014-Sep-13 12:22N 30°03' W 090°36'0 0.0
2014-Sep-13 11:13N 30°03' W 090°36'0 0.0
2014-Sep-13 08:13N 30°03' W 090°36'0 0.0
2014-Sep-13 07:25N 30°03' W 090°36'0 0.0
2014-Sep-13 06:25N 30°03' W 090°36'0 0.0
2014-Sep-13 04:31N 30°03' W 090°36'0 0.0
2014-Sep-13 03:22N 30°03' W 090°36'0 0.0
2014-Sep-13 02:31N 30°03' W 090°36'0 0.0
2014-Sep-13 01:31N 30°03' W 090°36'0 0.0
2014-Sep-13 00:19N 30°03' W 090°36'1 0.3
2014-Sep-12 22:33N 30°03' W 090°35'430 9.0
2014-Sep-10 22:34N 27°36' W 082°53'1211.9
2014-Sep-10 21:33N 27°37' W 082°40'1111.0
2014-Sep-10 20:34N 27°45' W 082°32'9 0.3
2014-Sep-09 17:29N 27°53' W 082°26'8 9.0
2014-Sep-09 16:34N 27°45' W 082°31'  
Track history (hours):
 
Tides and Currents Weather Stations Pressure Air Temp Water Temp Dewpoint Dewpoint Depression Visibility Wind Speed Wind Dir Waves Ship Positions

Osg Courageous

More information available from US FCC via Universal Licensing System and Coast Guard Vessel Documentation Center.

Last reported at 2014-Sep-19 16:21 UTC. Time now 2014-Sep-20 08:00 UTC.
Position N 27°36' W 082°58'.

Length 187 m; draft 7 m.

Type: Tanker. MMSI: 367481310.

Date/timePositionNaut miles runAvg speedWind from/ knotsBaromVisibWave heightAir tempDewpointWater temp
2014-Sep-19 16:21N 27°36' W 082°58'911.4
2014-Sep-19 15:33N 27°37' W 082°48'10 9.9
2014-Sep-19 14:34N 27°39' W 082°37'1010.0
2014-Sep-19 13:33N 27°47' W 082°30'9 8.5
2014-Sep-19 12:33N 27°55' W 082°27'2 1.6
2014-Sep-19 11:32N 27°57' W 082°27'0 0.0
2014-Sep-19 10:32N 27°57' W 082°27'0 0.0
2014-Sep-19 09:32N 27°57' W 082°27'0 0.0
2014-Sep-19 08:32N 27°57' W 082°27'0 0.0
2014-Sep-19 07:32N 27°57' W 082°27'0 0.0
2014-Sep-19 06:32N 27°57' W 082°27'0 0.0
2014-Sep-19 05:32N 27°57' W 082°27'0 0.0
2014-Sep-19 04:32N 27°57' W 082°27'0 0.0
2014-Sep-19 03:32N 27°57' W 082°27'0 0.0
2014-Sep-19 02:32N 27°57' W 082°27'0 0.0
2014-Sep-19 01:32N 27°57' W 082°27'0 0.0
2014-Sep-19 00:32N 27°57' W 082°27'0 0.0
2014-Sep-18 23:32N 27°57' W 082°27'1 0.6
2014-Sep-18 22:33N 27°56' W 082°27'0 0.0
2014-Sep-18 21:33N 27°56' W 082°27'0 0.0
2014-Sep-18 20:33N 27°56' W 082°27'0 0.0
2014-Sep-18 19:33N 27°56' W 082°27'0 0.0
2014-Sep-18 18:33N 27°56' W 082°27'0 0.0
2014-Sep-18 17:33N 27°56' W 082°27'0 0.0
2014-Sep-18 16:33N 27°56' W 082°27'0 0.0
2014-Sep-18 15:33N 27°56' W 082°27'0 0.0
2014-Sep-18 14:33N 27°56' W 082°27'0 0.0
2014-Sep-18 13:33N 27°56' W 082°27'0 0.0
2014-Sep-18 12:33N 27°56' W 082°27'0 0.0
2014-Sep-18 11:33N 27°56' W 082°27'1 0.5
2014-Sep-18 10:32N 27°57' W 082°27'0 0.0
2014-Sep-18 09:32N 27°57' W 082°27'0 0.0
2014-Sep-18 08:32N 27°57' W 082°27'0 0.0
2014-Sep-18 07:32N 27°57' W 082°27'0 0.0
2014-Sep-18 06:32N 27°57' W 082°27'0 0.0
2014-Sep-18 05:29N 27°57' W 082°27'0 0.0
2014-Sep-18 04:32N 27°57' W 082°27'1 1.5
2014-Sep-18 03:33N 27°55' W 082°27'7 7.4
2014-Sep-18 02:33N 27°48' W 082°28'9 9.3
2014-Sep-18 01:33N 27°41' W 082°35'10 9.7
2014-Sep-18 00:31N 27°36' W 082°45'9 9.8
2014-Sep-17 23:33N 27°36' W 082°56'1 1.4
2014-Sep-17 22:31N 27°37' W 082°57'0 0.0
2014-Sep-17 21:31N 27°37' W 082°57'0 0.0
2014-Sep-17 20:25N 27°37' W 082°57'0 0.0
2014-Sep-17 19:28N 27°37' W 082°57'0 0.0
2014-Sep-17 18:04N 27°37' W 082°57'0 0.0
2014-Sep-17 17:32N 27°37' W 082°57'0 0.0
2014-Sep-17 16:31N 27°37' W 082°57'0 0.0
2014-Sep-17 15:13N 27°37' W 082°57'0 0.0
2014-Sep-17 14:31N 27°37' W 082°57'0 0.0
2014-Sep-17 13:28N 27°37' W 082°57'0 0.0
2014-Sep-17 12:22N 27°37' W 082°57'0 0.0
2014-Sep-17 11:31N 27°37' W 082°57'0 0.0
2014-Sep-17 10:28N 27°37' W 082°57'0 0.0
2014-Sep-17 09:31N 27°37' W 082°57'0 0.1
2014-Sep-17 08:31N 27°37' W 082°57'0 0.0
2014-Sep-17 07:04N 27°37' W 082°57'0 0.0
2014-Sep-17 06:28N 27°37' W 082°57'0 0.0
2014-Sep-17 05:28N 27°37' W 082°57'0 0.0
2014-Sep-17 04:31N 27°37' W 082°57'0 0.0
2014-Sep-17 03:31N 27°37' W 082°57'0 0.0
2014-Sep-17 02:31N 27°37' W 082°57'0 0.0
2014-Sep-17 00:04N 27°37' W 082°57'0 0.0
2014-Sep-16 23:19N 27°37' W 082°57'0 0.0
2014-Sep-16 22:31N 27°37' W 082°57'0 0.0
2014-Sep-16 21:31N 27°37' W 082°57'0 0.0
2014-Sep-16 20:31N 27°37' W 082°57'0 0.1
2014-Sep-16 19:25N 27°37' W 082°57'0 0.1
2014-Sep-16 18:31N 27°37' W 082°57'0 0.1
2014-Sep-16 17:31N 27°37' W 082°57'0 0.0
2014-Sep-16 16:19N 27°37' W 082°57'0 0.0
2014-Sep-16 15:31N 27°37' W 082°57'0 0.0
2014-Sep-16 14:31N 27°37' W 082°57'0 0.1
2014-Sep-16 13:31N 27°37' W 082°57'0 0.1
2014-Sep-16 12:31N 27°37' W 082°57'2 2.1
2014-Sep-16 11:33N 27°38' W 082°59'  
2014-Sep-14 03:22N 29°58' W 090°17'7 8.5
2014-Sep-14 02:33N 29°59' W 090°25'10 9.8
2014-Sep-14 01:33N 30°03' W 090°35'0 0.1
2014-Sep-13 21:31N 30°03' W 090°36'0 0.0
2014-Sep-13 20:31N 30°03' W 090°36'0 0.0
2014-Sep-13 19:28N 30°03' W 090°36'0 0.0
2014-Sep-13 18:31N 30°03' W 090°36'0 0.0
2014-Sep-13 15:22N 30°03' W 090°36'0 0.0
2014-Sep-13 14:28N 30°03' W 090°36'0 0.0
2014-Sep-13 12:22N 30°03' W 090°36'0 0.0
2014-Sep-13 11:13N 30°03' W 090°36'0 0.0
2014-Sep-13 08:13N 30°03' W 090°36'0 0.0
2014-Sep-13 07:25N 30°03' W 090°36'0 0.0
2014-Sep-13 06:25N 30°03' W 090°36'0 0.0
2014-Sep-13 04:31N 30°03' W 090°36'0 0.0
2014-Sep-13 03:22N 30°03' W 090°36'0 0.0
2014-Sep-13 02:31N 30°03' W 090°36'0 0.0
2014-Sep-13 01:31N 30°03' W 090°36'0 0.0
2014-Sep-13 00:19N 30°03' W 090°36'1 0.3
2014-Sep-12 22:33N 30°03' W 090°35'430 9.0
2014-Sep-10 22:34N 27°36' W 082°53'1211.9
2014-Sep-10 21:33N 27°37' W 082°40'1111.0
2014-Sep-10 20:34N 27°45' W 082°32'9 0.3
2014-Sep-09 17:29N 27°53' W 082°26'8 9.0
2014-Sep-09 16:34N 27°45' W 082°31'  

Dump ship's entire track history